Time;durP1;ratioP1;P1;durP2;ratioP2;P2;SDS_P1;SDS_P2;PMS_P1;PMS_P2;Temp;Humidity;BMP_temperature;BMP_pressure;BME280_temperature;BME280_humidity;BME280_pressure;Samples;Min_cycle;Max_cycle;Signal;HPM_P1;HPM_P2
2020/12/28 00:01:00;;;;;;;2.67;1.10;;;;;;;;;;4973276;28;20019;-56
2020/12/28 00:03:27;;;;;;;4.50;1.45;;;;;;;;;;4973364;28;20110;-53
2020/12/28 00:05:54;;;;;;;2.60;0.93;;;;;;;;;;4972985;28;20483;-54
2020/12/28 00:08:21;;;;;;;4.68;1.30;;;;;;;;;;4973181;28;20458;-56
2020/12/28 00:10:48;;;;;;;3.92;1.25;;;;;;;;;;4972947;28;20038;-54
2020/12/28 00:13:15;;;;;;;1.67;1.00;;;;;;;;;;4971841;28;20031;-56
2020/12/28 00:15:42;;;;;;;3.13;1.15;;;;;;;;;;4977020;28;20078;-56
2020/12/28 00:18:10;;;;;;;5.43;2.20;;;;;;;;;;4977149;28;20037;-55
2020/12/28 00:20:37;;;;;;;2.17;1.30;;;;;;;;;;4975530;28;20077;-56
2020/12/28 00:23:04;;;;;;;3.40;1.20;;;;;;;;;;4976818;28;20031;-53
2020/12/28 00:25:31;;;;;;;2.05;1.17;;;;;;;;;;4976510;28;20399;-56
2020/12/28 00:27:58;;;;;;;1.83;1.00;;;;;;;;;;4976706;28;20495;-55
2020/12/28 00:30:25;;;;;;;2.20;1.00;;;;;;;;;;4976820;28;20027;-55
2020/12/28 00:32:52;;;;;;;4.07;1.40;;;;;;;;;;4976521;28;20042;-55
2020/12/28 00:35:19;;;;;;;2.85;1.40;;;;;;;;;;4976467;28;20031;-54
2020/12/28 00:37:46;;;;;;;3.20;1.40;;;;;;;;;;4976532;28;20086;-56
2020/12/28 00:40:13;;;;;;;1.92;1.08;;;;;;;;;;4976513;28;20027;-54
2020/12/28 00:42:40;;;;;;;3.58;1.20;;;;;;;;;;4976354;28;20054;-55
2020/12/28 00:45:10;;;;;;;3.72;1.15;;;;;;;;;;4975090;28;20027;-55
2020/12/28 00:47:38;;;;;;;3.08;1.30;;;;;;;;;;4976141;28;20085;-56
2020/12/28 00:50:06;;;;;;;3.28;1.25;;;;;;;;;;4976329;28;20114;-54
2020/12/28 00:52:33;;;;;;;3.28;1.40;;;;;;;;;;4976226;28;20057;-51
2020/12/28 00:55:00;;;;;;;2.45;1.25;;;;;;;;;;4976240;28;20070;-55
2020/12/28 00:57:27;;;;;;;2.35;1.00;;;;;;;;;;4976013;28;20444;-54
2020/12/28 00:59:54;;;;;;;3.08;1.05;;;;;;;;;;4976193;28;20033;-55
2020/12/28 01:02:21;;;;;;;2.05;1.00;;;;;;;;;;4976264;28;20030;-53
2020/12/28 01:04:48;;;;;;;2.42;0.90;;;;;;;;;;4974491;28;20065;-55
2020/12/28 01:07:15;;;;;;;2.72;1.23;;;;;;;;;;4975956;28;20463;-55
2020/12/28 01:09:42;;;;;;;3.70;1.15;;;;;;;;;;4976052;28;20037;-56
2020/12/28 01:12:09;;;;;;;1.58;0.80;;;;;;;;;;4975679;28;20645;-56
2020/12/28 01:14:36;;;;;;;1.95;0.90;;;;;;;;;;4975705;28;20122;-55
2020/12/28 01:17:03;;;;;;;2.88;1.05;;;;;;;;;;4974575;28;20022;-51
2020/12/28 01:19:30;;;;;;;2.60;1.00;;;;;;;;;;4975808;28;20034;-51
2020/12/28 01:21:58;;;;;;;2.08;1.20;;;;;;;;;;4975716;28;20035;-55
2020/12/28 01:24:25;;;;;;;2.80;1.17;;;;;;;;;;4975361;28;20081;-55
2020/12/28 01:26:52;;;;;;;2.13;1.05;;;;;;;;;;4975790;28;20054;-56
2020/12/28 01:29:19;;;;;;;2.08;1.00;;;;;;;;;;4975561;28;20019;-55
2020/12/28 01:31:46;;;;;;;2.47;1.15;;;;;;;;;;4975640;28;20407;-47
2020/12/28 01:34:13;;;;;;;1.90;0.88;;;;;;;;;;4974005;28;20420;-54
2020/12/28 01:36:40;;;;;;;3.47;1.13;;;;;;;;;;4975248;28;20023;-54
2020/12/28 01:39:07;;;;;;;2.85;1.38;;;;;;;;;;4975464;28;20030;-56
2020/12/28 01:41:34;;;;;;;2.08;0.98;;;;;;;;;;4975382;28;20025;-55
2020/12/28 01:44:01;;;;;;;2.58;1.00;;;;;;;;;;4975350;28;20025;-55
2020/12/28 01:46:29;;;;;;;2.72;1.02;;;;;;;;;;4975451;28;20049;-55
2020/12/28 01:48:56;;;;;;;1.95;0.85;;;;;;;;;;4975083;28;20053;-56
2020/12/28 01:51:23;;;;;;;3.35;0.90;;;;;;;;;;4975012;28;20114;-56
2020/12/28 01:53:51;;;;;;;3.40;1.10;;;;;;;;;;4975212;28;20538;-55
2020/12/28 01:56:23;;;;;;;2.33;0.85;;;;;;;;;;4975155;28;20038;-53
2020/12/28 01:58:50;;;;;;;2.20;0.80;;;;;;;;;;4975147;28;20019;-54
2020/12/28 02:01:18;;;;;;;1.48;1.00;;;;;;;;;;4975158;28;20440;-49
2020/12/28 02:03:45;;;;;;;2.58;0.90;;;;;;;;;;4974945;28;20022;-53
2020/12/28 02:06:12;;;;;;;3.60;1.23;;;;;;;;;;4974805;28;20033;-55
2020/12/28 02:08:39;;;;;;;1.90;1.02;;;;;;;;;;4975048;28;20030;-50
2020/12/28 02:11:06;;;;;;;2.25;0.98;;;;;;;;;;4974949;28;20030;-54
2020/12/28 02:13:33;;;;;;;1.98;0.90;;;;;;;;;;4973366;28;20030;-54
2020/12/28 02:16:00;;;;;;;1.33;0.80;;;;;;;;;;4973461;28;20030;-53
2020/12/28 02:18:27;;;;;;;1.80;1.10;;;;;;;;;;4974759;28;20034;-51
2020/12/28 02:20:54;;;;;;;2.33;1.05;;;;;;;;;;4974606;28;20026;-53
2020/12/28 02:23:21;;;;;;;4.80;1.20;;;;;;;;;;4974591;28;20030;-54
2020/12/28 02:25:48;;;;;;;2.65;0.90;;;;;;;;;;4974753;28;20494;-49
2020/12/28 02:28:15;;;;;;;2.30;1.08;;;;;;;;;;4974471;28;20031;-54
2020/12/28 02:30:42;;;;;;;3.08;1.10;;;;;;;;;;4974521;28;20054;-51
2020/12/28 02:33:09;;;;;;;2.88;1.00;;;;;;;;;;4973180;28;20039;-50
2020/12/28 02:35:36;;;;;;;1.92;1.00;;;;;;;;;;4974070;28;20052;-52
2020/12/28 02:38:03;;;;;;;1.55;0.73;;;;;;;;;;4973870;28;20023;-55
2020/12/28 02:40:30;;;;;;;1.60;0.65;;;;;;;;;;4974601;28;20085;-55
2020/12/28 02:42:57;;;;;;;1.67;0.70;;;;;;;;;;4974284;28;20479;-56
2020/12/28 02:45:24;;;;;;;1.52;0.70;;;;;;;;;;4974229;28;20033;-56
2020/12/28 02:47:51;;;;;;;3.38;1.08;;;;;;;;;;4972851;28;20039;-56
2020/12/28 02:50:18;;;;;;;1.60;1.13;;;;;;;;;;4974669;28;20033;-54
2020/12/28 02:52:45;;;;;;;1.17;0.88;;;;;;;;;;4974101;28;20035;-55
2020/12/28 02:55:12;;;;;;;2.60;1.10;;;;;;;;;;4974154;28;20026;-54
2020/12/28 02:57:39;;;;;;;3.95;1.10;;;;;;;;;;4974037;28;20041;-55
2020/12/28 03:00:07;;;;;;;3.35;0.98;;;;;;;;;;4973913;28;20601;-56
2020/12/28 03:02:34;;;;;;;3.25;1.10;;;;;;;;;;4974052;28;20503;-55
2020/12/28 03:05:01;;;;;;;2.53;1.00;;;;;;;;;;4973674;28;20101;-56
2020/12/28 03:07:28;;;;;;;2.53;0.82;;;;;;;;;;4973824;28;20074;-55
2020/12/28 03:09:56;;;;;;;2.45;1.15;;;;;;;;;;4974006;28;20025;-54
2020/12/28 03:12:23;;;;;;;1.83;1.00;;;;;;;;;;4973598;28;20439;-55
2020/12/28 03:14:50;;;;;;;1.40;0.70;;;;;;;;;;4973727;28;20053;-55
2020/12/28 03:17:17;;;;;;;4.15;1.00;;;;;;;;;;4973793;28;20023;-55
2020/12/28 03:19:44;;;;;;;1.33;0.77;;;;;;;;;;4972342;28;20085;-56
2020/12/28 03:22:11;;;;;;;2.30;0.88;;;;;;;;;;4973687;28;20019;-55
2020/12/28 03:24:38;;;;;;;1.27;0.50;;;;;;;;;;4973646;28;20106;-56
2020/12/28 03:27:05;;;;;;;1.17;0.60;;;;;;;;;;4973609;28;20015;-56
2020/12/28 03:29:33;;;;;;;1.70;0.80;;;;;;;;;;4973588;28;20395;-56
2020/12/28 03:32:02;;;;;;;2.25;0.90;;;;;;;;;;4973666;28;20105;-56
2020/12/28 03:34:29;;;;;;;1.23;0.60;;;;;;;;;;4973386;28;20031;-57
2020/12/28 03:36:56;;;;;;;30.52;2.00;;;;;;;;;;4952511;28;20036;-49
2020/12/28 03:39:23;;;;;;;11.60;0.98;;;;;;;;;;4950920;29;20019;-44
2020/12/28 03:41:50;;;;;;;6.63;0.75;;;;;;;;;;4946001;29;20575;-47
2020/12/28 03:44:17;;;;;;;5.72;0.75;;;;;;;;;;4938477;29;20375;-44
2020/12/28 03:46:44;;;;;;;14.45;1.10;;;;;;;;;;4934185;29;20095;-48
2020/12/28 03:49:11;;;;;;;3.10;0.80;;;;;;;;;;4959944;28;20086;-46
2020/12/28 03:51:38;;;;;;;3.58;0.77;;;;;;;;;;4984246;28;20034;-46
2020/12/28 03:54:05;;;;;;;2.42;0.70;;;;;;;;;;4991028;28;20045;-47
2020/12/28 03:56:32;;;;;;;3.47;0.90;;;;;;;;;;4987042;28;20058;-44
2020/12/28 03:58:59;;;;;;;1.38;0.50;;;;;;;;;;4985716;28;20085;-45
2020/12/28 04:01:26;;;;;;;2.13;0.45;;;;;;;;;;4985962;28;20053;-45
2020/12/28 04:03:53;;;;;;;1.20;0.40;;;;;;;;;;4982360;28;20033;-46
2020/12/28 04:06:21;;;;;;;2.30;0.80;;;;;;;;;;4980928;28;20776;-43
2020/12/28 04:08:48;;;;;;;4.43;0.40;;;;;;;;;;4985647;28;20023;-45
2020/12/28 04:11:15;;;;;;;1.92;0.70;;;;;;;;;;4967838;28;20472;-46
2020/12/28 04:13:42;;;;;;;3.15;0.75;;;;;;;;;;4990231;28;20129;-44
2020/12/28 04:16:10;;;;;;;1.23;0.47;;;;;;;;;;4995460;28;20034;-44
2020/12/28 04:18:37;;;;;;;0.95;0.30;;;;;;;;;;4989948;28;20050;-45
2020/12/28 04:21:04;;;;;;;1.50;0.50;;;;;;;;;;4984413;28;20059;-47
2020/12/28 04:23:31;;;;;;;1.45;0.40;;;;;;;;;;4992261;28;20454;-45
2020/12/28 04:25:58;;;;;;;0.80;0.30;;;;;;;;;;4997594;28;20560;-47
2020/12/28 04:28:26;;;;;;;3.08;0.43;;;;;;;;;;4981181;28;20394;-44
2020/12/28 04:30:53;;;;;;;3.78;0.60;;;;;;;;;;4977361;28;20482;-44
2020/12/28 04:33:20;;;;;;;10.05;0.68;;;;;;;;;;4977620;28;20449;-44
2020/12/28 04:35:47;;;;;;;3.58;0.50;;;;;;;;;;4982931;28;20015;-44
2020/12/28 04:38:14;;;;;;;1.38;0.45;;;;;;;;;;4973156;28;20034;-47
2020/12/28 04:40:42;;;;;;;1.10;0.52;;;;;;;;;;4992236;28;20101;-46
2020/12/28 04:43:13;;;;;;;2.03;0.70;;;;;;;;;;4991941;28;20026;-46
2020/12/28 04:45:40;;;;;;;1.70;0.50;;;;;;;;;;4992281;28;20027;-44
2020/12/28 04:48:08;;;;;;;5.15;0.60;;;;;;;;;;4990576;28;20455;-45
2020/12/28 04:50:39;;;;;;;1.02;0.57;;;;;;;;;;4992542;28;20053;-45
2020/12/28 04:53:06;;;;;;;3.40;0.65;;;;;;;;;;4974945;28;20456;-48
2020/12/28 04:55:34;;;;;;;2.70;0.90;;;;;;;;;;4992066;28;20540;-44
2020/12/28 04:58:01;;;;;;;2.70;0.75;;;;;;;;;;4991382;28;20038;-45
2020/12/28 05:00:28;;;;;;;2.53;0.68;;;;;;;;;;4993394;28;20026;-48
2020/12/28 05:02:56;;;;;;;3.70;1.00;;;;;;;;;;4995419;28;20441;-45
2020/12/28 05:05:23;;;;;;;1.40;0.60;;;;;;;;;;4995437;28;20019;-45
2020/12/28 05:07:50;;;;;;;3.08;0.73;;;;;;;;;;4995595;28;20026;-44
2020/12/28 05:10:25;;;;;;;3.58;0.75;;;;;;;;;;4993921;28;20023;-46
2020/12/28 05:12:52;;;;;;;5.65;0.63;;;;;;;;;;4994945;28;20038;-44
2020/12/28 05:15:19;;;;;;;3.17;1.05;;;;;;;;;;4995570;28;20073;-44
2020/12/28 05:17:54;;;;;;;2.58;0.52;;;;;;;;;;4995551;28;20505;-45
2020/12/28 05:20:24;;;;;;;2.83;0.90;;;;;;;;;;4994578;28;20389;-46
2020/12/28 05:22:55;;;;;;;1.88;0.93;;;;;;;;;;4994670;28;20027;-49
2020/12/28 05:25:23;;;;;;;2.30;0.90;;;;;;;;;;4994993;28;20023;-48
2020/12/28 05:27:52;;;;;;;1.52;0.70;;;;;;;;;;4994864;28;20390;-46
2020/12/28 05:30:22;;;;;;;3.42;0.80;;;;;;;;;;4994878;28;20552;-47
2020/12/28 05:32:49;;;;;;;1.77;0.70;;;;;;;;;;4994993;28;20402;-51
2020/12/28 05:35:16;;;;;;;4.57;0.93;;;;;;;;;;4994723;28;20026;-45
2020/12/28 05:37:47;;;;;;;2.63;0.82;;;;;;;;;;4993817;28;20035;-46
2020/12/28 05:40:14;;;;;;;3.00;1.15;;;;;;;;;;4994750;28;20022;-46
2020/12/28 05:42:51;;;;;;;3.05;0.68;;;;;;;;;;4994767;28;20041;-50
2020/12/28 05:45:18;;;;;;;0.93;0.63;;;;;;;;;;4994532;28;20023;-46
2020/12/28 05:47:49;;;;;;;4.50;0.80;;;;;;;;;;4994581;28;20037;-46
2020/12/28 05:50:19;;;;;;;3.30;0.70;;;;;;;;;;4994765;28;20034;-47
2020/12/28 05:52:53;;;;;;;1.95;0.68;;;;;;;;;;4994573;28;20038;-45
2020/12/28 05:55:21;;;;;;;1.52;0.63;;;;;;;;;;4994533;28;20026;-45
2020/12/28 05:57:48;;;;;;;1.95;0.65;;;;;;;;;;4994671;28;20478;-48
2020/12/28 06:00:19;;;;;;;2.55;0.60;;;;;;;;;;4994351;28;20023;-45
2020/12/28 06:02:49;;;;;;;1.67;0.68;;;;;;;;;;4994339;28;20027;-45
2020/12/28 06:05:20;;;;;;;2.22;0.68;;;;;;;;;;4993172;28;20034;-44
2020/12/28 06:07:50;;;;;;;1.30;0.47;;;;;;;;;;4994281;28;20038;-43
2020/12/28 06:10:22;;;;;;;1.10;0.47;;;;;;;;;;4994029;28;20022;-45
2020/12/28 06:12:58;;;;;;;1.00;0.43;;;;;;;;;;4993360;28;20034;-44
2020/12/28 06:15:27;;;;;;;6.47;0.80;;;;;;;;;;4994175;28;20022;-47
2020/12/28 06:17:57;;;;;;;3.50;0.70;;;;;;;;;;4994001;28;20522;-51
2020/12/28 06:20:34;;;;;;;1.35;0.47;;;;;;;;;;4993930;28;20466;-47
2020/12/28 06:23:08;;;;;;;2.83;0.65;;;;;;;;;;4993978;28;20553;-46
2020/12/28 06:25:41;;;;;;;2.10;0.68;;;;;;;;;;4994049;28;20030;-47
2020/12/28 06:28:11;;;;;;;6.28;0.85;;;;;;;;;;4993877;28;20026;-48
2020/12/28 06:30:41;;;;;;;5.97;0.95;;;;;;;;;;4993790;28;20105;-47
2020/12/28 06:33:11;;;;;;;4.53;1.00;;;;;;;;;;4993679;28;20038;-46
2020/12/28 06:35:41;;;;;;;2.00;0.88;;;;;;;;;;4993789;28;20026;-49
2020/12/28 06:38:12;;;;;;;3.83;0.75;;;;;;;;;;4992815;28;20084;-45
2020/12/28 06:40:43;;;;;;;3.58;0.80;;;;;;;;;;4993710;28;20105;-45
2020/12/28 06:43:15;;;;;;;2.22;0.60;;;;;;;;;;4993646;28;20041;-45
2020/12/28 06:45:46;;;;;;;2.17;0.40;;;;;;;;;;4993566;28;20101;-46
2020/12/28 06:48:23;;;;;;;5.17;0.80;;;;;;;;;;4993194;28;20073;-45
2020/12/28 06:50:55;;;;;;;2.70;0.70;;;;;;;;;;4993591;28;20312;-44
2020/12/28 06:53:30;;;;;;;3.25;0.60;;;;;;;;;;4993398;28;20034;-45
2020/12/28 06:56:10;;;;;;;3.53;0.55;;;;;;;;;;4993313;28;20038;-45
2020/12/28 06:58:40;;;;;;;1.85;0.70;;;;;;;;;;4993402;28;20026;-44
2020/12/28 07:01:10;;;;;;;3.22;0.80;;;;;;;;;;4993292;28;20026;-45
2020/12/28 07:03:40;;;;;;;1.95;0.57;;;;;;;;;;4993207;28;20041;-45
2020/12/28 07:06:11;;;;;;;3.78;0.80;;;;;;;;;;4993505;28;20073;-45
2020/12/28 07:08:41;;;;;;;2.00;0.60;;;;;;;;;;4993092;28;20030;-44
2020/12/28 07:11:11;;;;;;;2.10;0.60;;;;;;;;;;4993312;28;20100;-45
2020/12/28 07:13:41;;;;;;;1.25;0.70;;;;;;;;;;4993076;28;20042;-44
2020/12/28 07:16:11;;;;;;;4.20;0.85;;;;;;;;;;4993045;28;20022;-45
2020/12/28 07:18:42;;;;;;;2.13;0.60;;;;;;;;;;4992924;28;20725;-45
2020/12/28 07:21:11;;;;;;;3.67;0.73;;;;;;;;;;4992858;28;20069;-45
2020/12/28 07:23:42;;;;;;;1.77;0.85;;;;;;;;;;4992654;28;20057;-47
2020/12/28 07:26:14;;;;;;;3.47;0.80;;;;;;;;;;4992783;28;20506;-45
2020/12/28 07:28:47;;;;;;;1.65;0.60;;;;;;;;;;4992846;28;20022;-45
2020/12/28 07:31:17;;;;;;;1.95;0.60;;;;;;;;;;4991681;28;20018;-45
2020/12/28 07:33:50;;;;;;;3.83;0.82;;;;;;;;;;4992415;28;20046;-45
2020/12/28 07:36:24;;;;;;;2.22;0.75;;;;;;;;;;4992702;28;20502;-46
2020/12/28 07:38:54;;;;;;;2.30;0.70;;;;;;;;;;4992810;28;20053;-44
2020/12/28 07:41:25;;;;;;;1.95;0.60;;;;;;;;;;4992734;28;20482;-44
2020/12/28 07:44:00;;;;;;;6.25;0.98;;;;;;;;;;4992727;28;20014;-45
2020/12/28 07:46:36;;;;;;;3.50;1.00;;;;;;;;;;4992528;28;20053;-45
2020/12/28 07:49:14;;;;;;;2.00;0.60;;;;;;;;;;4991957;28;20054;-46
2020/12/28 07:51:50;;;;;;;2.05;0.65;;;;;;;;;;4992423;28;20077;-47
2020/12/28 07:54:25;;;;;;;1.90;0.63;;;;;;;;;;4992549;28;20026;-46
2020/12/28 07:57:04;;;;;;;2.17;0.60;;;;;;;;;;4992415;28;20036;-46
2020/12/28 07:59:55;;;;;;;1.77;0.70;;;;;;;;;;4992527;28;20026;-45
2020/12/28 08:02:36;;;;;;;2.67;0.80;;;;;;;;;;4992510;28;20449;-44
2020/12/28 08:05:08;;;;;;;2.45;0.70;;;;;;;;;;4992362;28;20022;-45
2020/12/28 08:07:41;;;;;;;1.20;0.70;;;;;;;;;;4992414;28;20475;-46
2020/12/28 08:10:14;;;;;;;2.97;0.75;;;;;;;;;;4975201;28;20375;-45
2020/12/28 08:13:00;;;;;;;3.67;0.93;;;;;;;;;;4992304;28;20039;-48
2020/12/28 08:15:36;;;;;;;1.63;0.40;;;;;;;;;;4992568;28;20369;-45
2020/12/28 08:18:10;;;;;;;2.83;0.73;;;;;;;;;;4992487;28;20038;-45
2020/12/28 08:20:45;;;;;;;2.50;0.80;;;;;;;;;;4992290;28;20518;-45
2020/12/28 08:23:16;;;;;;;2.15;0.75;;;;;;;;;;4991707;28;20037;-46
2020/12/28 08:25:46;;;;;;;;;;;;;;;;;;4990173;28;20030;-48
2020/12/28 08:28:19;;;;;;;2.63;0.93;;;;;;;;;;4992248;28;19905;-48
2020/12/28 08:30:53;;;;;;;2.17;0.65;;;;;;;;;;4992261;28;20019;-48
2020/12/28 08:33:25;;;;;;;1.98;0.70;;;;;;;;;;4992102;28;20038;-48
2020/12/28 08:35:58;;;;;;;0.95;0.55;;;;;;;;;;4995091;28;20101;-46
2020/12/28 08:38:35;;;;;;;2.97;0.80;;;;;;;;;;4996064;28;20371;-48
2020/12/28 08:41:08;;;;;;;3.90;0.98;;;;;;;;;;4995749;28;20033;-48
2020/12/28 08:43:39;;;;;;;2.53;0.60;;;;;;;;;;4996016;28;20029;-47
2020/12/28 08:46:08;;;;;;;;;;;;;;;;;;4996246;28;20056;-48
2020/12/28 08:48:41;;;;;;;1.55;0.50;;;;;;;;;;4995147;28;19968;-47
2020/12/28 08:51:21;;;;;;;2.63;0.70;;;;;;;;;;4995790;28;20030;-49
2020/12/28 08:53:52;;;;;;;1.88;0.90;;;;;;;;;;4995624;28;20076;-50
2020/12/28 08:56:22;;;;;;;2.17;0.68;;;;;;;;;;4978308;28;20030;-46
2020/12/28 08:58:52;;;;;;;1.98;0.60;;;;;;;;;;4995570;28;20030;-50
2020/12/28 09:01:22;;;;;;;1.73;0.70;;;;;;;;;;4995481;28;20033;-48
2020/12/28 09:03:51;;;;;;;7.03;0.80;;;;;;;;;;4995404;28;20029;-47
2020/12/28 09:06:22;;;;;;;2.15;0.45;;;;;;;;;;4995252;28;20034;-47
2020/12/28 09:08:51;;;;;;;1.20;0.70;;;;;;;;;;4995164;28;20613;-46
2020/12/28 09:11:21;;;;;;;2.20;0.70;;;;;;;;;;4995298;28;20500;-49
2020/12/28 09:13:51;;;;;;;0.93;0.70;;;;;;;;;;4995173;28;20046;-52
2020/12/28 09:16:21;;;;;;;1.60;0.70;;;;;;;;;;4995360;28;20065;-48
2020/12/28 09:18:50;;;;;;;3.20;0.50;;;;;;;;;;4995083;28;20156;-47
2020/12/28 09:21:22;;;;;;;1.52;0.70;;;;;;;;;;4995303;28;20014;-48
2020/12/28 09:23:53;;;;;;;1.58;0.52;;;;;;;;;;4995236;28;20030;-47
2020/12/28 09:26:23;;;;;;;2.17;0.60;;;;;;;;;;4995088;28;20033;-47
2020/12/28 09:28:52;;;;;;;4.88;0.77;;;;;;;;;;4994943;28;20026;-47
2020/12/28 09:31:23;;;;;;;1.40;0.55;;;;;;;;;;4994807;28;20031;-47
2020/12/28 09:33:53;;;;;;;2.25;0.70;;;;;;;;;;4994834;28;20056;-47
2020/12/28 09:36:23;;;;;;;2.17;0.70;;;;;;;;;;4994714;28;20029;-47
2020/12/28 09:38:53;;;;;;;4.35;1.15;;;;;;;;;;4994713;28;20046;-47
2020/12/28 09:41:23;;;;;;;1.95;0.55;;;;;;;;;;4993573;28;20019;-48
2020/12/28 09:43:54;;;;;;;0.93;0.40;;;;;;;;;;4994627;28;20018;-46
2020/12/28 09:46:22;;;;;;;2.15;0.70;;;;;;;;;;4994290;28;20034;-47
2020/12/28 09:48:52;;;;;;;2.30;0.70;;;;;;;;;;4994515;28;20481;-46
2020/12/28 09:51:22;;;;;;;1.58;0.65;;;;;;;;;;4994703;28;20034;-48
2020/12/28 09:53:55;;;;;;;1.33;0.50;;;;;;;;;;4994536;28;20026;-46
2020/12/28 09:56:27;;;;;;;2.35;0.60;;;;;;;;;;4994550;28;20045;-46
2020/12/28 09:58:57;;;;;;;;;;;;;;;;;;4995166;28;20413;-47
2020/12/28 10:01:30;;;;;;;2.20;0.70;;;;;;;;;;4994646;28;19916;-45
2020/12/28 10:04:01;;;;;;;1.48;0.55;;;;;;;;;;4994338;28;20088;-48
2020/12/28 10:06:37;;;;;;;1.17;0.50;;;;;;;;;;4994450;28;20377;-46
2020/12/28 10:09:06;;;;;;;1.83;0.52;;;;;;;;;;4987990;28;20031;-48
2020/12/28 10:11:33;;;;;;;1.23;0.50;;;;;;;;;;4980884;28;20384;-47
2020/12/28 10:14:00;;;;;;;0.95;0.50;;;;;;;;;;4974531;28;20045;-47
2020/12/28 10:16:31;;;;;;;3.22;0.65;;;;;;;;;;4974773;28;20029;-46
2020/12/28 10:18:59;;;;;;;1.92;0.55;;;;;;;;;;4974838;28;20026;-46
2020/12/28 10:21:30;;;;;;;1.08;0.45;;;;;;;;;;4974651;28;20026;-46
2020/12/28 10:23:58;;;;;;;1.17;0.40;;;;;;;;;;4974440;28;20127;-47
2020/12/28 10:26:26;;;;;;;2.83;0.70;;;;;;;;;;4974669;28;20022;-45
2020/12/28 10:28:53;;;;;;;1.70;0.60;;;;;;;;;;4974686;28;20018;-46
2020/12/28 10:31:21;;;;;;;0.90;0.55;;;;;;;;;;4974448;28;20364;-46
2020/12/28 10:33:48;;;;;;;2.55;0.70;;;;;;;;;;4974419;28;20089;-44
2020/12/28 10:36:19;;;;;;;2.92;0.98;;;;;;;;;;4974361;28;20033;-46
2020/12/28 10:38:47;;;;;;;1.23;0.40;;;;;;;;;;4974341;28;20027;-45
2020/12/28 10:41:14;;;;;;;0.90;0.50;;;;;;;;;;4974196;28;20046;-46
2020/12/28 10:43:41;;;;;;;2.22;0.50;;;;;;;;;;4972969;28;20428;-45
2020/12/28 10:46:09;;;;;;;1.85;0.50;;;;;;;;;;4973433;28;20415;-45
2020/12/28 10:48:36;;;;;;;1.55;0.63;;;;;;;;;;4973911;28;20136;-45
2020/12/28 10:51:04;;;;;;;2.22;0.43;;;;;;;;;;4973827;28;20030;-45
2020/12/28 10:53:31;;;;;;;3.00;0.57;;;;;;;;;;4972357;28;20046;-45
2020/12/28 10:55:58;;;;;;;2.03;0.60;;;;;;;;;;4974203;28;20368;-45
2020/12/28 10:58:25;;;;;;;1.42;0.47;;;;;;;;;;4973562;28;20562;-45
2020/12/28 11:00:52;;;;;;;1.00;0.40;;;;;;;;;;4973837;28;20105;-46
2020/12/28 11:03:19;;;;;;;1.92;0.60;;;;;;;;;;4973862;28;20035;-47
2020/12/28 11:05:46;;;;;;;1.40;0.70;;;;;;;;;;4973915;28;20499;-47
2020/12/28 11:08:13;;;;;;;2.13;0.77;;;;;;;;;;4973760;28;20498;-46
2020/12/28 11:10:41;;;;;;;0.98;0.50;;;;;;;;;;4973781;28;20034;-45
2020/12/28 11:13:09;;;;;;;2.00;0.90;;;;;;;;;;4973363;28;20546;-46
2020/12/28 11:15:36;;;;;;;0.68;0.40;;;;;;;;;;4973673;28;20085;-46
2020/12/28 11:18:04;;;;;;;2.05;0.57;;;;;;;;;;4973590;28;20046;-46
2020/12/28 11:20:31;;;;;;;3.63;0.68;;;;;;;;;;4973564;28;20034;-46
2020/12/28 11:22:59;;;;;;;2.25;0.60;;;;;;;;;;4973656;28;20078;-46
2020/12/28 11:25:25;;;;;;;4.40;0.60;;;;;;;;;;4973424;28;20037;-47
2020/12/28 11:27:52;;;;;;;2.55;0.90;;;;;;;;;;4973665;28;20038;-46
2020/12/28 11:30:19;;;;;;;1.65;0.60;;;;;;;;;;4973588;28;20142;-46
2020/12/28 11:32:46;;;;;;;2.05;0.55;;;;;;;;;;4973129;28;20035;-46
2020/12/28 11:35:14;;;;;;;1.35;0.68;;;;;;;;;;4973301;28;20027;-45
2020/12/28 11:37:40;;;;;;;1.45;0.50;;;;;;;;;;4973398;28;20487;-47
2020/12/28 11:40:08;;;;;;;0.98;0.65;;;;;;;;;;4973346;28;20023;-45
2020/12/28 11:42:35;;;;;;;1.08;0.50;;;;;;;;;;4972905;28;20379;-44
2020/12/28 11:45:02;;;;;;;0.77;0.50;;;;;;;;;;4973491;28;20070;-45
2020/12/28 11:47:29;;;;;;;5.20;0.68;;;;;;;;;;4973236;28;20030;-45
2020/12/28 11:49:56;;;;;;;1.05;0.50;;;;;;;;;;4972922;28;20507;-45
2020/12/28 11:52:23;;;;;;;1.95;0.50;;;;;;;;;;4972989;28;20043;-46
2020/12/28 11:54:50;;;;;;;6.05;0.88;;;;;;;;;;4979839;28;20073;-47
2020/12/28 11:57:17;;;;;;;3.95;0.90;;;;;;;;;;4983870;28;20033;-46
2020/12/28 11:59:44;;;;;;;3.45;0.88;;;;;;;;;;4986427;28;20030;-46
2020/12/28 12:02:11;;;;;;;2.70;0.75;;;;;;;;;;4991979;28;20437;-50
2020/12/28 12:04:51;;;;;;;3.22;1.10;;;;;;;;;;4991926;28;20026;-48
2020/12/28 12:07:22;;;;;;;4.22;1.02;;;;;;;;;;4989446;28;20022;-44
2020/12/28 12:09:50;;;;;;;4.05;0.82;;;;;;;;;;4993238;28;20101;-46
2020/12/28 12:12:17;;;;;;;2.25;0.70;;;;;;;;;;4995645;28;20084;-47
2020/12/28 12:14:44;;;;;;;2.38;0.55;;;;;;;;;;4987637;28;20034;-43
2020/12/28 12:17:11;;;;;;;2.63;0.77;;;;;;;;;;4990994;28;20569;-44
2020/12/28 12:19:39;;;;;;;4.00;0.80;;;;;;;;;;4991111;28;20027;-46
2020/12/28 12:22:06;;;;;;;15.07;0.90;;;;;;;;;;4992783;28;20034;-46
2020/12/28 12:24:33;;;;;;;6.03;1.27;;;;;;;;;;4995126;28;20022;-47
2020/12/28 12:27:00;;;;;;;1.65;0.57;;;;;;;;;;4995086;28;20478;-46
2020/12/28 12:29:27;;;;;;;3.15;0.82;;;;;;;;;;4977923;28;20474;-44
2020/12/28 12:31:54;;;;;;;5.30;1.00;;;;;;;;;;4993126;28;20038;-49
2020/12/28 12:34:21;;;;;;;2.95;0.60;;;;;;;;;;4995091;28;20546;-50
2020/12/28 12:36:48;;;;;;;4.13;1.30;;;;;;;;;;4995610;28;20036;-47
2020/12/28 12:39:15;;;;;;;3.85;0.90;;;;;;;;;;4994791;28;20026;-46
2020/12/28 12:41:42;;;;;;;20.00;1.13;;;;;;;;;;4994646;28;20133;-48
2020/12/28 12:44:09;;;;;;;3.28;0.98;;;;;;;;;;4994069;28;20026;-45
2020/12/28 12:46:36;;;;;;;1.33;0.70;;;;;;;;;;4976363;28;20129;-48
2020/12/28 12:49:03;;;;;;;3.35;0.95;;;;;;;;;;4994933;28;20096;-45
2020/12/28 12:51:30;;;;;;;8.88;0.80;;;;;;;;;;4991741;28;20137;-45
2020/12/28 12:53:57;;;;;;;15.50;1.10;;;;;;;;;;4987909;28;20034;-45
2020/12/28 12:56:24;;;;;;;14.13;1.00;;;;;;;;;;4991731;28;20014;-44
2020/12/28 12:58:51;;;;;;;5.47;0.80;;;;;;;;;;4989893;28;20037;-45
2020/12/28 13:01:19;;;;;;;1.52;0.52;;;;;;;;;;4993337;28;20025;-43
2020/12/28 13:03:46;;;;;;;6.13;1.00;;;;;;;;;;4991332;28;20850;-46
2020/12/28 13:06:13;;;;;;;3.60;0.73;;;;;;;;;;4989921;28;20026;-44
2020/12/28 13:08:40;;;;;;;1.95;0.60;;;;;;;;;;4988301;28;20042;-45
2020/12/28 13:11:07;;;;;;;4.15;0.85;;;;;;;;;;4992949;28;20054;-45
2020/12/28 13:13:35;;;;;;;2.55;0.70;;;;;;;;;;4992133;28;20030;-45
2020/12/28 13:16:02;;;;;;;1.63;0.52;;;;;;;;;;4989441;28;20014;-46
2020/12/28 13:18:32;;;;;;;2.30;0.55;;;;;;;;;;4991418;28;20038;-48
2020/12/28 13:20:59;;;;;;;7.15;1.13;;;;;;;;;;4992196;28;20486;-47
2020/12/28 13:23:26;;;;;;;5.20;1.00;;;;;;;;;;4992978;28;20156;-46
2020/12/28 13:25:53;;;;;;;16.15;1.38;;;;;;;;;;4985639;28;20027;-48
2020/12/28 13:28:20;;;;;;;5.80;0.77;;;;;;;;;;4987493;28;20604;-47
2020/12/28 13:30:47;;;;;;;2.30;0.80;;;;;;;;;;4988457;28;20080;-45
2020/12/28 13:33:14;;;;;;;6.28;0.90;;;;;;;;;;4993440;28;20758;-47
2020/12/28 13:35:41;;;;;;;4.05;1.10;;;;;;;;;;4993899;28;20225;-46
2020/12/28 13:38:08;;;;;;;7.20;0.95;;;;;;;;;;4981382;28;20037;-47
2020/12/28 13:40:36;;;;;;;2.17;0.55;;;;;;;;;;4984660;28;20030;-45
2020/12/28 13:43:03;;;;;;;3.75;0.80;;;;;;;;;;4979788;28;20062;-44
2020/12/28 13:45:30;;;;;;;5.28;1.30;;;;;;;;;;4973452;28;20030;-46
2020/12/28 13:47:57;;;;;;;5.22;1.10;;;;;;;;;;4979539;28;20027;-43
2020/12/28 13:50:24;;;;;;;4.65;1.33;;;;;;;;;;4982098;28;20018;-45
2020/12/28 13:52:51;;;;;;;5.03;1.05;;;;;;;;;;4982010;28;20486;-43
2020/12/28 13:55:18;;;;;;;1.60;0.70;;;;;;;;;;4991015;28;20015;-46
2020/12/28 13:57:45;;;;;;;2.40;0.75;;;;;;;;;;4981454;28;20129;-45
2020/12/28 14:00:12;;;;;;;3.17;0.75;;;;;;;;;;4989714;28;20026;-48
2020/12/28 14:02:39;;;;;;;5.07;0.73;;;;;;;;;;4993434;28;20623;-46
2020/12/28 14:05:06;;;;;;;8.02;0.95;;;;;;;;;;4992359;28;20034;-47
2020/12/28 14:07:33;;;;;;;2.15;0.77;;;;;;;;;;4983123;28;20692;-45
2020/12/28 14:10:00;;;;;;;3.40;0.82;;;;;;;;;;4985762;28;20054;-45
2020/12/28 14:12:27;;;;;;;6.68;1.42;;;;;;;;;;4991625;28;20076;-46
2020/12/28 14:14:54;;;;;;;7.18;1.00;;;;;;;;;;4992678;28;20034;-45
2020/12/28 14:17:23;;;;;;;2.85;0.52;;;;;;;;;;4991458;28;20022;-45
2020/12/28 14:19:50;;;;;;;4.82;1.08;;;;;;;;;;4990904;28;20042;-45
2020/12/28 14:22:17;;;;;;;2.60;0.52;;;;;;;;;;4992901;28;20101;-47
2020/12/28 14:24:44;;;;;;;4.10;0.77;;;;;;;;;;4991192;28;20022;-47
2020/12/28 14:27:11;;;;;;;5.75;0.77;;;;;;;;;;4990489;28;20033;-45
2020/12/28 14:29:38;;;;;;;5.63;0.77;;;;;;;;;;4990387;28;20084;-45
2020/12/28 14:32:04;;;;;;;3.47;0.73;;;;;;;;;;4973838;28;20027;-47
2020/12/28 14:34:31;;;;;;;3.35;0.60;;;;;;;;;;4989620;28;20467;-46
2020/12/28 14:36:58;;;;;;;4.53;0.82;;;;;;;;;;4989951;28;20390;-48
2020/12/28 14:39:25;;;;;;;6.55;0.95;;;;;;;;;;4991637;28;20038;-49
2020/12/28 14:41:52;;;;;;;17.30;1.20;;;;;;;;;;4970658;28;20042;-47
2020/12/28 14:44:19;;;;;;;8.35;1.00;;;;;;;;;;4989521;28;20026;-49
2020/12/28 14:46:49;;;;;;;13.70;1.20;;;;;;;;;;4992245;28;20022;-46
2020/12/28 14:49:16;;;;;;;2.50;0.55;;;;;;;;;;4990930;28;20041;-48
2020/12/28 14:51:43;;;;;;;3.33;0.45;;;;;;;;;;4991764;28;20030;-45